Time;durP1;ratioP1;P1;durP2;ratioP2;P2;SDS_P1;SDS_P2;PMS_P1;PMS_P2;Temp;Humidity;BMP_temperature;BMP_pressure;BME280_temperature;BME280_humidity;BME280_pressure;Samples;Min_cycle;Max_cycle;Signal;HPM_P1;HPM_P2
2023/10/21 00:00:58;;;;;;;;;;;;;;;;;;5095077;28;20246;-25
2023/10/21 00:03:23;;;;;;;;;;;;;;;;;;5094498;28;20369;-26
2023/10/21 00:05:49;;;;;;;;;;;;;;;;;;5094770;28;19908;-26
2023/10/21 00:08:15;;;;;;;;;;;;;;;;;;5094785;28;19955;-26
2023/10/21 00:10:42;;;;;;;;;;;;;;;;;;5097278;28;19934;-24
2023/10/21 00:13:08;;;;;;;;;;;;;;;;;;5099184;28;19908;-25
2023/10/21 00:15:34;;;;;;;;;;;;;;;;;;5099153;28;20345;-19
2023/10/21 00:18:00;;;;;;;;;;;;;;;;;;5098914;28;19908;-22
2023/10/21 00:20:26;;;;;;;;;;;;;;;;;;5098811;28;19961;-23
2023/10/21 00:22:52;;;;;;;;;;;;;;;;;;5098712;28;19939;-27
2023/10/21 00:25:18;;;;;;;;;;;;;;;;;;5098740;28;19908;-26
2023/10/21 00:27:44;;;;;;;;;;;;;;;;;;5098732;28;20339;-26
2023/10/21 00:30:11;;;;;;;;;;;;;;;;;;5098587;28;19913;-26
2023/10/21 00:32:37;;;;;;;;;;;;;;;;;;5098669;28;19908;-24
2023/10/21 00:35:04;;;;;;;;;;;;;;;;;;5098767;28;19909;-24
2023/10/21 00:37:30;;;;;;;;;;;;;;;;;;5098513;28;19936;-24
2023/10/21 00:39:56;;;;;;;;;;;;;;;;;;5098445;28;19920;-24
2023/10/21 00:42:22;;;;;;;;;;;;;;;;;;5098372;28;19912;-27
2023/10/21 00:44:48;;;;;;;;;;;;;;;;;;5098391;28;19915;-26
2023/10/21 00:47:14;;;;;;;;;;;;;;;;;;5098405;28;19908;-22
2023/10/21 00:49:42;;;;;;;;;;;;;;;;;;5098599;28;19912;-24
2023/10/21 00:52:09;;;;;;;;;;;;;;;;;;5099208;28;19923;-28
2023/10/21 00:54:35;;;;;;;;;;;;;;;;;;5098268;28;19916;-25
2023/10/21 00:57:00;;;;;;;;;;;;;;;;;;5098199;28;20260;-24
2023/10/21 00:59:26;;;;;;;;;;;;;;;;;;5098101;28;20006;-23
2023/10/21 01:01:52;;;;;;;;;;;;;;;;;;5098032;28;19915;-25
2023/10/21 01:04:18;;;;;;;;;;;;;;;;;;5098089;28;19916;-28
2023/10/21 01:06:44;;;;;;;;;;;;;;;;;;5097913;28;20002;-29
2023/10/21 01:09:10;;;;;;;;;;;;;;;;;;5097900;28;19908;-21
2023/10/21 01:11:37;;;;;;;;;;;;;;;;;;5098006;28;19916;-27
2023/10/21 01:14:03;;;;;;;;;;;;;;;;;;5097781;28;19998;-24
2023/10/21 01:16:28;;;;;;;;;;;;;;;;;;5097951;28;19934;-23
2023/10/21 01:18:54;;;;;;;;;;;;;;;;;;5097759;28;19908;-25
2023/10/21 01:21:20;;;;;;;;;;;;;;;;;;5097659;28;19908;-22
2023/10/21 01:23:46;;;;;;;;;;;;;;;;;;5096598;28;20335;-20
2023/10/21 01:26:12;;;;;;;;;;;;;;;;;;5097580;28;20250;-22
2023/10/21 01:28:38;;;;;;;;;;;;;;;;;;5097501;28;19908;-25
2023/10/21 01:31:04;;;;;;;;;;;;;;;;;;5097339;28;20010;-23
2023/10/21 01:33:30;;;;;;;;;;;;;;;;;;5097416;28;19908;-24
2023/10/21 01:35:56;;;;;;;;;;;;;;;;;;5097407;28;19968;-21
2023/10/21 01:38:24;;;;;;;;;;;;;;;;;;5097409;28;19909;-22
2023/10/21 01:40:50;;;;;;;;;;;;;;;;;;5096332;28;19941;-24
2023/10/21 01:43:16;;;;;;;;;;;;;;;;;;5097226;28;19938;-23
2023/10/21 01:45:42;;;;;;;;;;;;;;;;;;5097220;28;19919;-25
2023/10/21 01:48:11;;;;;;;;;;;;;;;;;;5097136;28;19908;-26
2023/10/21 01:50:37;;;;;;;;;;;;;;;;;;5097057;28;19912;-24
2023/10/21 01:53:03;;;;;;;;;;;;;;;;;;5097062;28;20366;-25
2023/10/21 01:55:29;;;;;;;;;;;;;;;;;;5097037;28;20003;-24
2023/10/21 01:57:55;;;;;;;;;;;;;;;;;;5097251;28;20353;-23
2023/10/21 02:00:21;;;;;;;;;;;;;;;;;;5097195;28;19926;-19
2023/10/21 02:02:47;;;;;;;;;;;;;;;;;;5096687;28;19984;-24
2023/10/21 02:05:12;;;;;;;;;;;;;;;;;;5096930;28;20273;-21
2023/10/21 02:07:39;;;;;;;;;;;;;;;;;;5096822;28;19908;-27
2023/10/21 02:10:05;;;;;;;;;;;;;;;;;;5096934;28;19938;-24
2023/10/21 02:12:31;;;;;;;;;;;;;;;;;;5096783;28;19908;-27
2023/10/21 02:14:57;;;;;;;;;;;;;;;;;;5096679;28;20361;-25
2023/10/21 02:17:22;;;;;;;;;;;;;;;;;;5096618;28;19908;-21
2023/10/21 02:19:48;;;;;;;;;;;;;;;;;;5096776;28;20010;-19
2023/10/21 02:22:14;;;;;;;;;;;;;;;;;;5096928;28;19908;-29
2023/10/21 02:24:40;;;;;;;;;;;;;;;;;;5096399;28;20248;-23
2023/10/21 02:27:06;;;;;;;;;;;;;;;;;;5096371;28;19960;-24
2023/10/21 02:29:32;;;;;;;;;;;;;;;;;;5096618;28;19915;-26
2023/10/21 02:31:58;;;;;;;;;;;;;;;;;;5096203;28;19912;-23
2023/10/21 02:34:24;;;;;;;;;;;;;;;;;;5095953;28;20002;-25
2023/10/21 02:36:50;;;;;;;;;;;;;;;;;;5095265;28;19908;-24
2023/10/21 02:39:17;;;;;;;;;;;;;;;;;;5096682;28;20004;-26
2023/10/21 02:41:43;;;;;;;;;;;;;;;;;;5096226;28;20041;-26
2023/10/21 02:44:09;;;;;;;;;;;;;;;;;;5096069;28;20361;-27
2023/10/21 02:46:35;;;;;;;;;;;;;;;;;;5096082;28;20377;-22
2023/10/21 02:49:02;;;;;;;;;;;;;;;;;;5096007;28;19965;-25
2023/10/21 02:51:28;;;;;;;;;;;;;;;;;;5095909;28;20338;-26
2023/10/21 02:53:54;;;;;;;;;;;;;;;;;;5096108;28;19995;-26
2023/10/21 02:56:20;;;;;;;;;;;;;;;;;;5095878;28;19971;-23
2023/10/21 02:58:46;;;;;;;;;;;;;;;;;;5095808;28;19912;-24
2023/10/21 03:01:13;;;;;;;;;;;;;;;;;;5096012;28;19908;-26
2023/10/21 03:03:39;;;;;;;;;;;;;;;;;;5095501;28;19916;-21
2023/10/21 03:06:05;;;;;;;;;;;;;;;;;;5095947;28;20010;-24
2023/10/21 03:08:31;;;;;;;;;;;;;;;;;;5095625;28;20002;-28
2023/10/21 03:10:57;;;;;;;;;;;;;;;;;;5095512;28;19982;-23
2023/10/21 03:13:23;;;;;;;;;;;;;;;;;;5095483;28;19909;-22
2023/10/21 03:15:49;;;;;;;;;;;;;;;;;;5095746;28;19968;-29
2023/10/21 03:18:15;;;;;;;;;;;;;;;;;;5095760;28;19912;-22
2023/10/21 03:20:41;;;;;;;;;;;;;;;;;;5095680;28;19908;-25
2023/10/21 03:23:07;;;;;;;;;;;;;;;;;;5095341;28;19915;-26
2023/10/21 03:25:33;;;;;;;;;;;;;;;;;;5095352;28;19915;-27
2023/10/21 03:28:00;;;;;;;;;;;;;;;;;;5095562;28;19908;-26
2023/10/21 03:30:26;;;;;;;;;;;;;;;;;;5095232;28;19916;-25
2023/10/21 03:32:52;;;;;;;;;;;;;;;;;;5095431;28;19908;-30
2023/10/21 03:35:18;;;;;;;;;;;;;;;;;;5095201;28;20300;-25
2023/10/21 03:37:44;;;;;;;;;;;;;;;;;;5095136;28;20258;-26
2023/10/21 03:40:10;;;;;;;;;;;;;;;;;;5095058;28;19912;-24
2023/10/21 03:42:37;;;;;;;;;;;;;;;;;;5095351;28;20295;-23
2023/10/21 03:45:04;;;;;;;;;;;;;;;;;;5094227;28;19919;-22
2023/10/21 03:47:30;;;;;;;;;;;;;;;;;;5095259;28;19909;-26
2023/10/21 03:49:56;;;;;;;;;;;;;;;;;;5095191;28;20276;-23
2023/10/21 03:52:22;;;;;;;;;;;;;;;;;;5094915;28;20356;-26
2023/10/21 03:54:48;;;;;;;;;;;;;;;;;;5095488;28;20342;-25
2023/10/21 03:57:14;;;;;;;;;;;;;;;;;;5093960;28;19908;-25
2023/10/21 03:59:40;;;;;;;;;;;;;;;;;;5094917;28;19908;-21
2023/10/21 04:02:07;;;;;;;;;;;;;;;;;;5095236;28;20002;-22
2023/10/21 04:04:33;;;;;;;;;;;;;;;;;;5094554;28;19916;-22
2023/10/21 04:06:59;;;;;;;;;;;;;;;;;;5094768;28;19926;-22
2023/10/21 04:09:26;;;;;;;;;;;;;;;;;;5093761;28;19908;-23
2023/10/21 04:11:52;;;;;;;;;;;;;;;;;;5094833;28;19927;-21
2023/10/21 04:14:18;;;;;;;;;;;;;;;;;;5094969;28;19908;-24
2023/10/21 04:16:44;;;;;;;;;;;;;;;;;;5094687;28;19905;-22
2023/10/21 04:19:10;;;;;;;;;;;;;;;;;;5094927;28;20009;-25
2023/10/21 04:21:36;;;;;;;;;;;;;;;;;;5094692;28;19912;-27
2023/10/21 04:24:03;;;;;;;;;;;;;;;;;;5094542;28;19919;-25
2023/10/21 04:26:29;;;;;;;;;;;;;;;;;;5094638;28;19961;-22
2023/10/21 04:28:55;;;;;;;;;;;;;;;;;;5094519;28;20041;-22
2023/10/21 04:31:21;;;;;;;;;;;;;;;;;;5094590;28;19913;-28
2023/10/21 04:33:47;;;;;;;;;;;;;;;;;;5094775;28;20003;-23
2023/10/21 04:36:13;;;;;;;;;;;;;;;;;;5094594;28;19908;-19
2023/10/21 04:38:39;;;;;;;;;;;;;;;;;;5094534;28;20003;-26
2023/10/21 04:41:04;;;;;;;;;;;;;;;;;;5094774;28;19915;-24
2023/10/21 04:43:30;;;;;;;;;;;;;;;;;;5094453;28;19965;-27
2023/10/21 04:45:56;;;;;;;;;;;;;;;;;;5094692;28;19958;-24
2023/10/21 04:48:22;;;;;;;;;;;;;;;;;;5094342;28;20251;-21
2023/10/21 04:50:48;;;;;;;;;;;;;;;;;;5094340;28;20006;-24
2023/10/21 04:53:15;;;;;;;;;;;;;;;;;;5094401;28;19908;-21
2023/10/21 04:55:41;;;;;;;;;;;;;;;;;;5095387;28;19908;-25
2023/10/21 04:58:07;;;;;;;;;;;;;;;;;;5098086;28;19919;-22
2023/10/21 05:00:33;;;;;;;;;;;;;;;;;;5098074;28;19908;-27
2023/10/21 05:02:59;;;;;;;;;;;;;;;;;;5097801;28;19916;-28
2023/10/21 05:05:25;;;;;;;;;;;;;;;;;;5098001;28;19919;-27
2023/10/21 05:07:52;;;;;;;;;;;;;;;;;;5098023;28;19908;-28
2023/10/21 05:10:18;;;;;;;;;;;;;;;;;;5098140;28;19931;-22
2023/10/21 05:12:44;;;;;;;;;;;;;;;;;;5097864;28;19934;-25
2023/10/21 05:15:10;;;;;;;;;;;;;;;;;;5097809;28;20308;-28
2023/10/21 05:17:36;;;;;;;;;;;;;;;;;;5097777;28;19979;-26
2023/10/21 05:20:02;;;;;;;;;;;;;;;;;;5097722;28;19922;-26
2023/10/21 05:22:28;;;;;;;;;;;;;;;;;;5097694;28;19908;-24
2023/10/21 05:24:55;;;;;;;;;;;;;;;;;;5097751;28;19998;-24
2023/10/21 05:27:21;;;;;;;;;;;;;;;;;;5097885;28;19915;-23
2023/10/21 05:29:47;;;;;;;;;;;;;;;;;;5097402;28;19919;-24
2023/10/21 05:32:14;;;;;;;;;;;;;;;;;;5097442;28;19908;-22
2023/10/21 05:34:40;;;;;;;;;;;;;;;;;;5097475;28;19919;-21
2023/10/21 05:37:06;;;;;;;;;;;;;;;;;;5097442;28;19908;-22
2023/10/21 05:39:32;;;;;;;;;;;;;;;;;;5097357;28;20226;-25
2023/10/21 05:41:58;;;;;;;;;;;;;;;;;;5097197;28;19908;-21
2023/10/21 05:44:24;;;;;;;;;;;;;;;;;;5097449;28;20015;-24
2023/10/21 05:46:51;;;;;;;;;;;;;;;;;;5096196;28;19908;-22
2023/10/21 05:49:18;;;;;;;;;;;;;;;;;;5097475;28;19908;-21
2023/10/21 05:51:44;;;;;;;;;;;;;;;;;;5097107;28;20010;-26
2023/10/21 05:54:10;;;;;;;;;;;;;;;;;;5097014;28;19987;-21
2023/10/21 05:56:36;;;;;;;;;;;;;;;;;;5097305;28;19912;-22
2023/10/21 05:59:04;;;;;;;;;;;;;;;;;;5097256;28;20220;-23
2023/10/21 06:01:30;;;;;;;;;;;;;;;;;;5096899;28;19908;-31
2023/10/21 06:03:56;;;;;;;;;;;;;;;;;;5096640;28;19931;-23
2023/10/21 06:06:22;;;;;;;;;;;;;;;;;;5097093;28;19908;-32
2023/10/21 06:08:48;;;;;;;;;;;;;;;;;;5094881;28;20327;-25
2023/10/21 06:11:14;;;;;;;;;;;;;;;;;;5096962;28;19920;-27
2023/10/21 06:13:40;;;;;;;;;;;;;;;;;;5096682;28;19919;-22
2023/10/21 06:16:06;;;;;;;;;;;;;;;;;;5096677;28;20261;-22
2023/10/21 06:18:32;;;;;;;;;;;;;;;;;;5096668;28;20359;-20
2023/10/21 06:20:58;;;;;;;;;;;;;;;;;;5096594;28;19918;-23
2023/10/21 06:23:24;;;;;;;;;;;;;;;;;;5096508;28;20016;-24
2023/10/21 06:25:50;;;;;;;;;;;;;;;;;;5096516;28;19937;-24
2023/10/21 06:28:16;;;;;;;;;;;;;;;;;;5096440;28;20358;-21
2023/10/21 06:30:42;;;;;;;;;;;;;;;;;;5096287;28;19955;-21
2023/10/21 06:33:11;;;;;;;;;;;;;;;;;;5096379;28;19915;-21
2023/10/21 06:35:37;;;;;;;;;;;;;;;;;;5096323;28;19962;-21
2023/10/21 06:38:04;;;;;;;;;;;;;;;;;;5096248;28;19915;-22
2023/10/21 06:40:30;;;;;;;;;;;;;;;;;;5096547;28;19915;-24
2023/10/21 06:42:56;;;;;;;;;;;;;;;;;;5096055;28;19972;-25
2023/10/21 06:45:22;;;;;;;;;;;;;;;;;;5096120;28;19908;-23
2023/10/21 06:47:48;;;;;;;;;;;;;;;;;;5096314;28;19908;-25
2023/10/21 06:50:14;;;;;;;;;;;;;;;;;;5095874;28;19935;-24
2023/10/21 06:52:40;;;;;;;;;;;;;;;;;;5095869;28;19908;-23
2023/10/21 06:55:06;;;;;;;;;;;;;;;;;;5094862;28;19923;-23
2023/10/21 06:57:32;;;;;;;;;;;;;;;;;;5095862;28;19908;-23
2023/10/21 06:59:59;;;;;;;;;;;;;;;;;;5095852;28;19916;-19
2023/10/21 07:02:25;;;;;;;;;;;;;;;;;;5095768;28;19962;-22
2023/10/21 07:04:51;;;;;;;;;;;;;;;;;;5095798;28;20302;-25
2023/10/21 07:07:17;;;;;;;;;;;;;;;;;;5095930;28;19960;-26
2023/10/21 07:09:44;;;;;;;;;;;;;;;;;;5095670;28;19912;-19
2023/10/21 07:12:12;;;;;;;;;;;;;;;;;;5095527;28;19955;-23
2023/10/21 07:14:39;;;;;;;;;;;;;;;;;;5095549;28;20443;-25
2023/10/21 07:17:05;;;;;;;;;;;;;;;;;;5095509;28;19976;-24
2023/10/21 07:19:31;;;;;;;;;;;;;;;;;;5095595;28;19912;-23
2023/10/21 07:21:58;;;;;;;;;;;;;;;;;;5095343;28;19919;-20
2023/10/21 07:24:24;;;;;;;;;;;;;;;;;;5095342;28;19996;-22
2023/10/21 07:26:50;;;;;;;;;;;;;;;;;;5095401;28;19908;-23
2023/10/21 07:29:16;;;;;;;;;;;;;;;;;;5095574;28;19912;-25
2023/10/21 07:31:43;;;;;;;;;;;;;;;;;;5095197;28;20006;-23
2023/10/21 07:34:11;;;;;;;;;;;;;;;;;;5094164;28;20315;-23
2023/10/21 07:36:37;;;;;;;;;;;;;;;;;;5095173;28;19919;-25
2023/10/21 07:39:04;;;;;;;;;;;;;;;;;;5095397;28;19927;-27
2023/10/21 07:41:30;;;;;;;;;;;;;;;;;;5095104;28;19908;-24
2023/10/21 07:43:56;;;;;;;;;;;;;;;;;;5095046;28;19972;-24
2023/10/21 07:46:22;;;;;;;;;;;;;;;;;;5095056;28;19916;-23
2023/10/21 07:48:48;;;;;;;;;;;;;;;;;;5095087;28;19912;-25
2023/10/21 07:51:14;;;;;;;;;;;;;;;;;;5094930;28;20335;-25
2023/10/21 07:53:40;;;;;;;;;;;;;;;;;;5094924;28;19912;-25
2023/10/21 07:56:06;;;;;;;;;;;;;;;;;;5094985;28;20072;-23
2023/10/21 07:58:32;;;;;;;;;;;;;;;;;;5094884;28;19916;-22
2023/10/21 08:00:58;;;;;;;;;;;;;;;;;;5095230;28;19908;-21
2023/10/21 08:03:24;;;;;;;;;;;;;;;;;;5094539;28;20265;-19
2023/10/21 08:05:51;;;;;;;;;;;;;;;;;;5094814;28;20208;-22
2023/10/21 08:08:17;;;;;;;;;;;;;;;;;;5094862;28;20019;-22
2023/10/21 08:10:44;;;;;;;;;;;;;;;;;;5094978;28;19960;-24
2023/10/21 08:13:10;;;;;;;;;;;;;;;;;;5094694;28;19991;-22
2023/10/21 08:15:36;;;;;;;;;;;;;;;;;;5094773;28;20259;-20
2023/10/21 08:18:02;;;;;;;;;;;;;;;;;;5094973;28;20355;-23
2023/10/21 08:20:28;;;;;;;;;;;;;;;;;;5094728;28;19908;-31
2023/10/21 08:22:54;;;;;;;;;;;;;;;;;;5094619;28;20258;-25
2023/10/21 08:25:20;;;;;;;;;;;;;;;;;;5094653;28;20259;-21
2023/10/21 08:27:46;;;;;;;;;;;;;;;;;;5094913;28;19912;-23
2023/10/21 08:30:13;;;;;;;;;;;;;;;;;;5094453;28;20341;-24
2023/10/21 08:32:39;;;;;;;;;;;;;;;;;;5098628;28;19912;-23
2023/10/21 08:35:04;;;;;;;;;;;;;;;;;;5098611;28;20057;-23
2023/10/21 08:37:30;;;;;;;;;;;;;;;;;;5098579;28;19908;-25
2023/10/21 08:39:56;;;;;;;;;;;;;;;;;;5098793;28;19908;-31
2023/10/21 08:42:22;;;;;;;;;;;;;;;;;;5098656;28;19908;-23
2023/10/21 08:44:48;;;;;;;;;;;;;;;;;;5098483;28;20357;-20
2023/10/21 08:47:14;;;;;;;;;;;;;;;;;;5098437;28;19923;-22
2023/10/21 08:49:41;;;;;;;;;;;;;;;;;;5098645;28;19918;-24
2023/10/21 08:52:07;;;;;;;;;;;;;;;;;;5098414;28;19995;-22
2023/10/21 08:54:34;;;;;;;;;;;;;;;;;;5098445;28;19965;-25
2023/10/21 08:57:00;;;;;;;;;;;;;;;;;;5098963;28;19919;-24
2023/10/21 08:59:26;;;;;;;;;;;;;;;;;;5098431;28;19912;-23
2023/10/21 09:01:52;;;;;;;;;;;;;;;;;;5097046;28;20011;-28
2023/10/21 09:04:18;;;;;;;;;;;;;;;;;;5097881;28;19966;-25
2023/10/21 09:06:44;;;;;;;;;;;;;;;;;;5098309;28;19908;-21
2023/10/21 09:09:10;;;;;;;;;;;;;;;;;;5098032;28;20396;-25
2023/10/21 09:11:36;;;;;;;;;;;;;;;;;;5097852;28;20437;-25
2023/10/21 09:14:02;;;;;;;;;;;;;;;;;;5097831;28;19908;-25
2023/10/21 09:16:28;;;;;;;;;;;;;;;;;;5097924;28;19977;-22
2023/10/21 09:18:54;;;;;;;;;;;;;;;;;;5098078;28;20388;-24
2023/10/21 09:21:20;;;;;;;;;;;;;;;;;;5097800;28;19908;-25
2023/10/21 09:23:46;;;;;;;;;;;;;;;;;;5097907;28;19919;-26
2023/10/21 09:26:12;;;;;;;;;;;;;;;;;;5097670;28;19908;-27
2023/10/21 09:28:38;;;;;;;;;;;;;;;;;;5097877;28;20343;-23
2023/10/21 09:31:05;;;;;;;;;;;;;;;;;;5097765;28;20230;-25
2023/10/21 09:33:31;;;;;;;;;;;;;;;;;;5097379;28;19909;-29
2023/10/21 09:35:58;;;;;;;;;;;;;;;;;;5097508;28;19915;-24
2023/10/21 09:38:24;;;;;;;;;;;;;;;;;;5097444;28;20247;-24
2023/10/21 09:40:49;;;;;;;;;;;;;;;;;;5097420;28;20220;-22
2023/10/21 09:43:15;;;;;;;;;;;;;;;;;;5095983;28;19923;-22
2023/10/21 09:45:41;;;;;;;;;;;;;;;;;;5097267;28;19965;-24
2023/10/21 09:48:07;;;;;;;;;;;;;;;;;;5097234;28;19915;-21
2023/10/21 09:50:33;;;;;;;;;;;;;;;;;;5097345;28;19912;-23
2023/10/21 09:52:59;;;;;;;;;;;;;;;;;;5097147;28;20055;-25
2023/10/21 09:55:25;;;;;;;;;;;;;;;;;;5097120;28;19951;-26
2023/10/21 09:57:51;;;;;;;;;;;;;;;;;;5097017;28;19915;-23
2023/10/21 10:00:19;;;;;;;;;;;;;;;;;;5097306;28;19908;-23
2023/10/21 10:02:47;;;;;;;;;;;;;;;;;;5095750;28;20326;-22
2023/10/21 10:05:14;;;;;;;;;;;;;;;;;;5097261;28;19919;-25
2023/10/21 10:07:40;;;;;;;;;;;;;;;;;;5097188;28;19908;-21
2023/10/21 10:10:06;;;;;;;;;;;;;;;;;;5096783;28;20388;-22
2023/10/21 10:12:32;;;;;;;;;;;;;;;;;;5096717;28;19919;-25
2023/10/21 10:14:58;;;;;;;;;;;;;;;;;;5096668;28;19915;-24
2023/10/21 10:17:24;;;;;;;;;;;;;;;;;;5096702;28;19977;-21
2023/10/21 10:19:52;;;;;;;;;;;;;;;;;;5096860;28;20361;-23
2023/10/21 10:22:18;;;;;;;;;;;;;;;;;;5096569;28;19935;-22
2023/10/21 10:24:44;;;;;;;;;;;;;;;;;;5096828;28;19908;-27
2023/10/21 10:27:11;;;;;;;;;;;;;;;;;;5096424;28;20320;-21
2023/10/21 10:29:37;;;;;;;;;;;;;;;;;;5096472;28;19908;-22
2023/10/21 10:32:03;;;;;;;;;;;;;;;;;;5096252;28;20244;-23
2023/10/21 10:34:29;;;;;;;;;;;;;;;;;;5096358;28;19909;-26
2023/10/21 10:36:55;;;;;;;;;;;;;;;;;;5096531;28;19991;-28
2023/10/21 10:39:21;;;;;;;;;;;;;;;;;;5096314;28;20003;-25
2023/10/21 10:41:48;;;;;;;;;;;;;;;;;;5096196;28;20386;-23
2023/10/21 10:44:15;;;;;;;;;;;;;;;;;;5096458;28;20000;-23
2023/10/21 10:46:41;;;;;;;;;;;;;;;;;;5096056;28;19904;-22
2023/10/21 10:49:08;;;;;;;;;;;;;;;;;;5096052;28;19908;-24
2023/10/21 10:51:34;;;;;;;;;;;;;;;;;;5096006;28;20287;-22
2023/10/21 10:54:00;;;;;;;;;;;;;;;;;;5095652;28;19908;-24
2023/10/21 10:56:26;;;;;;;;;;;;;;;;;;5095965;28;19911;-21
2023/10/21 10:58:52;;;;;;;;;;;;;;;;;;5095874;28;19908;-25
2023/10/21 11:01:18;;;;;;;;;;;;;;;;;;5096116;28;19908;-22
2023/10/21 11:03:44;;;;;;;;;;;;;;;;;;5094505;28;19920;-22
2023/10/21 11:06:12;;;;;;;;;;;;;;;;;;5095969;28;19908;-27
2023/10/21 11:08:38;;;;;;;;;;;;;;;;;;5095673;28;19943;-21
2023/10/21 11:11:04;;;;;;;;;;;;;;;;;;5095865;28;19981;-19
2023/10/21 11:13:30;;;;;;;;;;;;;;;;;;5095564;28;19912;-32
2023/10/21 11:15:57;;;;;;;;;;;;;;;;;;5095580;28;19912;-24
2023/10/21 11:18:23;;;;;;;;;;;;;;;;;;5095583;28;19908;-28
2023/10/21 11:20:49;;;;;;;;;;;;;;;;;;5095764;28;20306;-26
2023/10/21 11:23:16;;;;;;;;;;;;;;;;;;5095554;28;19912;-23
2023/10/21 11:25:42;;;;;;;;;;;;;;;;;;5095250;28;19908;-24
2023/10/21 11:28:09;;;;;;;;;;;;;;;;;;5095198;28;19915;-23
2023/10/21 11:30:35;;;;;;;;;;;;;;;;;;5095182;28;19927;-23
2023/10/21 11:33:03;;;;;;;;;;;;;;;;;;5094714;28;20206;-24
2023/10/21 11:35:29;;;;;;;;;;;;;;;;;;5095183;28;19908;-24
2023/10/21 11:37:56;;;;;;;;;;;;;;;;;;5095187;28;19915;-22
2023/10/21 11:40:22;;;;;;;;;;;;;;;;;;5095565;28;19919;-29
2023/10/21 11:42:48;;;;;;;;;;;;;;;;;;5095342;28;19908;-26
2023/10/21 11:45:14;;;;;;;;;;;;;;;;;;5095104;28;19912;-25
2023/10/21 11:47:40;;;;;;;;;;;;;;;;;;5094006;28;19911;-28
2023/10/21 11:50:09;;;;;;;;;;;;;;;;;;5095170;28;20331;-22
2023/10/21 11:52:34;;;;;;;;;;;;;;;;;;5093918;28;20000;-23
2023/10/21 11:58:19;;;;;;;;;;;;;;;;;;5094927;28;19908;-24
2023/10/21 12:21:40;;;;;;;;;;;;;;;;;;5094987;28;19915;-21
2023/10/21 12:30:26;;;;;;;;;;;;;;;;;;5094947;28;20238;-28
2023/10/21 12:35:52;;;;;;;;;;;;;;;;;;5095155;28;19950;-25
2023/10/21 12:45:45;;;;;;;;;;;;;;;;;;5095239;28;19908;-26
2023/10/21 12:48:13;;;;;;;;;;;;;;;;;;5094746;28;20249;-22
2023/10/21 12:50:40;;;;;;;;;;;;;;;;;;5094465;28;19912;-24
2023/10/21 12:53:06;;;;;;;;;;;;;;;;;;5094659;28;20231;-21
2023/10/21 12:55:35;;;;;;;;;;;;;;;;;;5094452;28;19909;-22
2023/10/21 12:58:01;;;;;;;;;;;;;;;;;;5094390;28;19970;-28
2023/10/21 13:00:27;;;;;;;;;;;;;;;;;;5094289;28;19908;-23
2023/10/21 13:02:53;;;;;;;;;;;;;;;;;;5094026;28;19970;-30
2023/10/21 13:05:19;;;;;;;;;;;;;;;;;;5094559;28;19916;-27
2023/10/21 13:07:45;;;;;;;;;;;;;;;;;;5094260;28;19916;-21
2023/10/21 13:10:11;;;;;;;;;;;;;;;;;;5094186;28;20367;-24
2023/10/21 13:12:37;;;;;;;;;;;;;;;;;;5094317;28;19908;-23
2023/10/21 13:15:09;;;;;;;;;;;;;;;;;;5094432;28;19918;-24
2023/10/21 13:17:35;;;;;;;;;;;;;;;;;;5096260;28;20005;-21
2023/10/21 13:20:03;;;;;;;;;;;;;;;;;;5097988;28;19912;-22
2023/10/21 13:22:29;;;;;;;;;;;;;;;;;;5097948;28;20220;-21
2023/10/21 13:24:55;;;;;;;;;;;;;;;;;;5097700;28;19915;-23
2023/10/21 13:27:21;;;;;;;;;;;;;;;;;;5097615;28;19908;-23
2023/10/21 13:29:47;;;;;;;;;;;;;;;;;;5097583;28;20036;-22
2023/10/21 13:32:13;;;;;;;;;;;;;;;;;;5097393;28;20014;-24
2023/10/21 13:34:39;;;;;;;;;;;;;;;;;;5097818;28;19908;-23
2023/10/21 13:37:05;;;;;;;;;;;;;;;;;;5097447;28;20303;-26
2023/10/21 13:39:31;;;;;;;;;;;;;;;;;;5097461;28;19908;-23
2023/10/21 13:41:57;;;;;;;;;;;;;;;;;;5097554;28;19919;-25
2023/10/21 13:44:23;;;;;;;;;;;;;;;;;;5097618;28;19912;-29
2023/10/21 13:46:49;;;;;;;;;;;;;;;;;;5097262;28;19909;-26
2023/10/21 13:49:15;;;;;;;;;;;;;;;;;;5097203;28;19908;-29
2023/10/21 13:51:41;;;;;;;;;;;;;;;;;;5097396;28;19967;-23
2023/10/21 13:54:11;;;;;;;;;;;;;;;;;;5097771;28;19908;-24
2023/10/21 13:56:37;;;;;;;;;;;;;;;;;;5097091;28;19908;-25
2023/10/21 13:59:06;;;;;;;;;;;;;;;;;;5097038;28;19934;-22
2023/10/21 14:01:32;;;;;;;;;;;;;;;;;;5097064;28;20011;-22
2023/10/21 14:03:58;;;;;;;;;;;;;;;;;;5096751;28;19959;-27
2023/10/21 14:06:23;;;;;;;;;;;;;;;;;;5097170;28;19912;-22
2023/10/21 14:08:49;;;;;;;;;;;;;;;;;;5096880;28;19926;-25
2023/10/21 14:11:15;;;;;;;;;;;;;;;;;;5097016;28;19957;-25
2023/10/21 14:13:44;;;;;;;;;;;;;;;;;;5096761;28;19908;-26
2023/10/21 14:16:11;;;;;;;;;;;;;;;;;;5097037;28;19908;-23
2023/10/21 14:18:41;;;;;;;;;;;;;;;;;;5096734;28;19964;-23
2023/10/21 14:21:07;;;;;;;;;;;;;;;;;;5096881;28;19908;-25
2023/10/21 14:23:33;;;;;;;;;;;;;;;;;;5096520;28;19908;-24
2023/10/21 14:25:59;;;;;;;;;;;;;;;;;;5096482;28;20246;-24
2023/10/21 14:28:26;;;;;;;;;;;;;;;;;;5095756;28;19927;-22
2023/10/21 14:30:52;;;;;;;;;;;;;;;;;;5096710;28;19912;-26
2023/10/21 14:33:18;;;;;;;;;;;;;;;;;;5095360;28;19908;-24
2023/10/21 14:35:44;;;;;;;;;;;;;;;;;;5096337;28;19908;-22
2023/10/21 14:38:10;;;;;;;;;;;;;;;;;;5096276;28;19916;-23
2023/10/21 14:40:36;;;;;;;;;;;;;;;;;;5096463;28;20370;-23
2023/10/21 14:43:03;;;;;;;;;;;;;;;;;;5096066;28;19908;-22
2023/10/21 14:45:29;;;;;;;;;;;;;;;;;;5096372;28;19919;-24
2023/10/21 14:47:55;;;;;;;;;;;;;;;;;;5096396;28;19908;-25
2023/10/21 14:50:21;;;;;;;;;;;;;;;;;;5096007;28;19915;-25
2023/10/21 14:52:49;;;;;;;;;;;;;;;;;;5095947;28;19994;-27
2023/10/21 14:55:16;;;;;;;;;;;;;;;;;;5095952;28;19912;-24
2023/10/21 14:57:42;;;;;;;;;;;;;;;;;;5096180;28;19961;-24
2023/10/21 15:00:13;;;;;;;;;;;;;;;;;;5095900;28;19936;-24
2023/10/21 15:02:39;;;;;;;;;;;;;;;;;;5095558;28;20252;-23
2023/10/21 15:05:06;;;;;;;;;;;;;;;;;;5096297;28;20012;-22
2023/10/21 15:07:32;;;;;;;;;;;;;;;;;;5095988;28;19912;-21
2023/10/21 15:09:59;;;;;;;;;;;;;;;;;;5095996;28;20003;-22
2023/10/21 15:12:25;;;;;;;;;;;;;;;;;;5095498;28;20322;-28
2023/10/21 15:14:51;;;;;;;;;;;;;;;;;;5095615;28;19939;-21
2023/10/21 15:17:17;;;;;;;;;;;;;;;;;;5095545;28;20447;-22
2023/10/21 15:19:43;;;;;;;;;;;;;;;;;;5095515;28;19919;-21
2023/10/21 15:22:09;;;;;;;;;;;;;;;;;;5096120;28;20007;-23
2023/10/21 15:24:35;;;;;;;;;;;;;;;;;;5095411;28;19908;-25
2023/10/21 15:27:01;;;;;;;;;;;;;;;;;;5095371;28;19908;-23
2023/10/21 15:29:30;;;;;;;;;;;;;;;;;;5095583;28;19908;-22
2023/10/21 15:31:56;;;;;;;;;;;;;;;;;;5095171;28;19926;-25
2023/10/21 15:34:23;;;;;;;;;;;;;;;;;;5095297;28;19908;-25
2023/10/21 15:36:52;;;;;;;;;;;;;;;;;;5095251;28;19904;-25
2023/10/21 15:39:21;;;;;;;;;;;;;;;;;;5095121;28;19927;-28
2023/10/21 15:41:47;;;;;;;;;;;;;;;;;;5095386;28;20270;-29
2023/10/21 15:44:13;;;;;;;;;;;;;;;;;;5095126;28;19985;-25
2023/10/21 15:46:39;;;;;;;;;;;;;;;;;;5095406;28;20020;-24
2023/10/21 15:49:05;;;;;;;;;;;;;;;;;;5095408;28;19919;-27
2023/10/21 15:51:31;;;;;;;;;;;;;;;;;;5095174;28;19912;-20
2023/10/21 15:53:57;;;;;;;;;;;;;;;;;;5094955;28;20251;-26
2023/10/21 15:56:23;;;;;;;;;;;;;;;;;;5095233;28;19908;-20
2023/10/21 15:58:49;;;;;;;;;;;;;;;;;;5094930;28;20391;-23
2023/10/21 16:01:15;;;;;;;;;;;;;;;;;;5094923;28;20330;-22
2023/10/21 16:03:41;;;;;;;;;;;;;;;;;;5094659;28;19920;-28
2023/10/21 16:06:10;;;;;;;;;;;;;;;;;;5094815;28;19915;-27
2023/10/21 16:08:36;;;;;;;;;;;;;;;;;;5093864;28;19923;-24
2023/10/21 16:11:02;;;;;;;;;;;;;;;;;;5094719;28;19912;-22
2023/10/21 16:13:28;;;;;;;;;;;;;;;;;;5094751;28;19935;-23
2023/10/21 16:15:55;;;;;;;;;;;;;;;;;;5094784;28;20304;-21
2023/10/21 16:18:21;;;;;;;;;;;;;;;;;;5094737;28;19908;-25
2023/10/21 16:20:47;;;;;;;;;;;;;;;;;;5094718;28;19912;-26
2023/10/21 16:23:13;;;;;;;;;;;;;;;;;;5094620;28;20254;-25
2023/10/21 16:25:39;;;;;;;;;;;;;;;;;;5094689;28;20254;-22
2023/10/21 16:28:05;;;;;;;;;;;;;;;;;;5094966;28;19908;-23
2023/10/21 16:30:31;;;;;;;;;;;;;;;;;;5094796;28;19912;-28
2023/10/21 16:32:57;;;;;;;;;;;;;;;;;;5094572;28;19909;-25
2023/10/21 16:35:23;;;;;;;;;;;;;;;;;;5094872;28;19930;-24
2023/10/21 16:37:49;;;;;;;;;;;;;;;;;;5094506;28;19916;-28
2023/10/21 16:40:15;;;;;;;;;;;;;;;;;;5094801;28;20006;-23
2023/10/21 16:42:41;;;;;;;;;;;;;;;;;;5094400;28;20377;-22
2023/10/21 16:45:07;;;;;;;;;;;;;;;;;;5094782;28;19908;-25
2023/10/21 16:47:33;;;;;;;;;;;;;;;;;;5094459;28;19914;-23
2023/10/21 16:49:59;;;;;;;;;;;;;;;;;;5094720;28;20331;-21
2023/10/21 16:52:25;;;;;;;;;;;;;;;;;;5096222;28;19930;-24
2023/10/21 16:54:51;;;;;;;;;;;;;;;;;;5098338;28;19957;-21
2023/10/21 16:57:17;;;;;;;;;;;;;;;;;;5098255;28;20355;-27
2023/10/21 16:59:43;;;;;;;;;;;;;;;;;;5098494;28;19915;-22
2023/10/21 17:02:09;;;;;;;;;;;;;;;;;;5098065;28;20398;-22
2023/10/21 17:04:37;;;;;;;;;;;;;;;;;;5098012;28;19932;-24
2023/10/21 17:07:04;;;;;;;;;;;;;;;;;;5098090;28;19908;-22
2023/10/21 17:09:30;;;;;;;;;;;;;;;;;;5097015;28;19916;-27
2023/10/21 17:11:56;;;;;;;;;;;;;;;;;;5097895;28;19923;-21
2023/10/21 17:14:22;;;;;;;;;;;;;;;;;;5097993;28;19908;-20
2023/10/21 17:16:48;;;;;;;;;;;;;;;;;;5097879;28;19996;-22
2023/10/21 17:19:14;;;;;;;;;;;;;;;;;;5097810;28;19908;-22